Time;durP1;ratioP1;P1;durP2;ratioP2;P2;SDS_P1;SDS_P2;PMS_P1;PMS_P2;Temp;Humidity;BMP_temperature;BMP_pressure;BME280_temperature;BME280_humidity;BME280_pressure;Samples;Min_cycle;Max_cycle;Signal;HPM_P1;HPM_P2
2022/10/10 00:02:14;;;;;;;0.30;0.30;;;10.40;99.90;;;;;;5030058;28;20092;-75
2022/10/10 00:04:40;;;;;;;0.10;0.10;;;10.50;99.90;;;;;;5028398;28;20049;-75
2022/10/10 00:07:06;;;;;;;0.10;0.10;;;10.40;99.90;;;;;;5027004;28;20069;-75
2022/10/10 00:09:32;;;;;;;0.00;0.00;;;10.50;99.90;;;;;;5031669;28;20051;-75
2022/10/10 00:11:58;;;;;;;0.10;0.10;;;10.50;99.90;;;;;;5025729;28;20034;-75
2022/10/10 00:14:24;;;;;;;0.03;0.03;;;10.50;99.90;;;;;;5027256;28;20260;-75
2022/10/10 00:16:50;;;;;;;0.10;0.10;;;10.60;99.90;;;;;;5029097;28;20083;-75
2022/10/10 00:19:15;;;;;;;0.10;0.10;;;10.50;99.90;;;;;;5031562;28;20149;-75
2022/10/10 00:21:41;;;;;;;0.10;0.10;;;10.50;99.90;;;;;;5026978;28;20056;-75
2022/10/10 00:24:06;;;;;;;0.38;0.38;;;10.50;99.90;;;;;;5021931;28;20528;-75
2022/10/10 00:26:32;;;;;;;0.00;0.00;;;10.50;99.90;;;;;;5025942;28;20439;-75
2022/10/10 00:28:58;;;;;;;0.10;0.10;;;10.50;99.90;;;;;;5029895;28;20038;-75
2022/10/10 00:31:23;;;;;;;0.20;0.20;;;10.50;99.90;;;;;;5027596;28;20073;-75
2022/10/10 00:33:49;;;;;;;0.35;0.35;;;10.50;99.90;;;;;;5028120;28;20052;-75
2022/10/10 00:36:15;;;;;;;0.10;0.10;;;10.60;99.90;;;;;;5026875;28;20057;-75
2022/10/10 00:38:41;;;;;;;0.38;0.38;;;10.50;99.90;;;;;;5028508;28;20043;-75
2022/10/10 00:41:07;;;;;;;0.10;0.10;;;10.50;99.90;;;;;;5030264;28;20095;-74
2022/10/10 00:43:33;;;;;;;0.10;0.10;;;10.50;99.90;;;;;;5029962;28;20041;-74
2022/10/10 00:45:58;;;;;;;0.00;0.00;;;10.50;99.90;;;;;;5029577;28;20045;-74
2022/10/10 00:48:35;;;;;;;4.20;1.20;;;10.60;99.90;;;;;;5030190;28;20038;-74
2022/10/10 00:51:11;;;;;;;0.10;0.10;;;10.50;99.90;;;;;;5029578;28;20057;-74
2022/10/10 00:53:38;;;;;;;0.10;0.10;;;10.50;99.90;;;;;;5028307;28;20084;-74
2022/10/10 00:56:04;;;;;;;0.43;0.43;;;10.60;99.90;;;;;;5031087;28;20096;-74
2022/10/10 00:58:31;;;;;;;0.28;0.28;;;10.60;99.90;;;;;;5028552;28;20045;-74
2022/10/10 01:00:57;;;;;;;0.63;0.50;;;10.60;99.90;;;;;;5023901;28;20397;-75
2022/10/10 01:03:22;;;;;;;0.10;0.10;;;10.60;99.90;;;;;;5033650;28;20041;-75
2022/10/10 01:05:48;;;;;;;0.10;0.10;;;10.60;99.90;;;;;;5027939;28;20046;-75
2022/10/10 01:08:16;;;;;;;0.10;0.10;;;10.60;99.90;;;;;;5028681;28;20049;-74
2022/10/10 01:11:06;;;;;;;0.20;0.20;;;10.60;99.90;;;;;;5028408;28;20560;-74
2022/10/10 01:14:05;;;;;;;0.10;0.10;;;10.60;99.90;;;;;;5028524;28;20069;-75
2022/10/10 01:16:52;;;;;;;0.05;0.05;;;10.70;99.90;;;;;;5024249;28;20041;-73
2022/10/10 01:19:29;;;;;;;0.35;0.35;;;10.60;99.90;;;;;;5034127;28;20045;-73
2022/10/10 01:22:21;;;;;;;0.08;0.08;;;10.60;99.90;;;;;;5030036;28;20148;-73
2022/10/10 01:25:06;;;;;;;0.10;0.10;;;10.60;99.90;;;;;;5028089;28;20470;-73
2022/10/10 01:27:44;;;;;;;0.00;0.00;;;10.50;99.90;;;;;;5024994;28;20041;-74
2022/10/10 01:30:14;;;;;;;0.10;0.10;;;10.50;99.90;;;;;;5028506;28;20079;-75
2022/10/10 01:32:50;;;;;;;0.20;0.20;;;10.60;99.90;;;;;;5029986;28;20038;-74
2022/10/10 01:35:43;;;;;;;0.35;0.35;;;10.60;99.90;;;;;;5028793;28;20081;-72
2022/10/10 01:38:29;;;;;;;0.10;0.10;;;10.60;99.90;;;;;;5027311;28;20132;-72
2022/10/10 01:41:14;;;;;;;0.28;0.28;;;10.50;99.90;;;;;;5035306;28;20182;-73
2022/10/10 01:43:40;;;;;;;0.10;0.10;;;10.50;99.90;;;;;;5030368;28;20489;-72
2022/10/10 01:46:11;;;;;;;0.20;0.20;;;10.60;99.90;;;;;;5025376;28;20041;-73
2022/10/10 01:48:38;;;;;;;0.20;0.20;;;10.50;99.90;;;;;;5024769;28;20041;-72
2022/10/10 01:51:22;;;;;;;0.10;0.10;;;10.50;99.90;;;;;;5029083;28;20048;-73
2022/10/10 01:54:06;;;;;;;0.15;0.15;;;10.50;99.90;;;;;;5026291;28;20053;-73
2022/10/10 01:57:09;;;;;;;0.50;0.50;;;10.50;99.90;;;;;;5028469;28;20045;-73
2022/10/10 02:00:04;;;;;;;0.35;0.35;;;10.50;99.90;;;;;;5030589;28;20042;-73
2022/10/10 02:02:39;;;;;;;0.47;0.47;;;10.50;99.90;;;;;;5023980;28;20041;-74
2022/10/10 02:05:23;;;;;;;0.43;0.43;;;10.50;99.90;;;;;;5029695;28;20399;-73
2022/10/10 02:07:57;;;;;;;0.40;0.40;;;10.40;99.90;;;;;;5031435;28;20049;-74
2022/10/10 02:10:29;;;;;;;0.10;0.10;;;10.40;99.90;;;;;;5029346;28;20128;-74
2022/10/10 02:12:57;;;;;;;0.10;0.10;;;10.30;99.90;;;;;;5029379;28;20136;-76
2022/10/10 02:15:27;;;;;;;0.20;0.20;;;10.30;99.90;;;;;;5028670;28;21409;-76
2022/10/10 02:17:55;;;;;;;0.13;0.13;;;10.30;99.90;;;;;;5026473;28;20156;-75
2022/10/10 02:20:25;;;;;;;0.20;0.20;;;10.30;99.90;;;;;;5023893;28;20056;-74
2022/10/10 02:22:50;;;;;;;0.00;0.00;;;10.30;99.90;;;;;;5032766;28;20094;-74
2022/10/10 02:25:22;;;;;;;0.05;0.05;;;10.40;99.90;;;;;;5024334;28;20428;-74
2022/10/10 02:28:11;;;;;;;0.17;0.17;;;10.30;99.90;;;;;;5027824;28;20116;-74
2022/10/10 02:30:41;;;;;;;0.10;0.10;;;10.30;99.90;;;;;;5028822;28;20057;-74
2022/10/10 02:33:07;;;;;;;0.10;0.10;;;10.30;99.90;;;;;;5029102;28;20057;-74
2022/10/10 02:35:42;;;;;;;0.00;0.00;;;10.30;99.90;;;;;;5027880;28;20049;-74
2022/10/10 02:38:13;;;;;;;0.10;0.10;;;10.30;99.90;;;;;;5028955;28;20584;-74
2022/10/10 02:40:41;;;;;;;0.28;0.28;;;10.30;99.90;;;;;;5033526;28;20048;-74
2022/10/10 02:43:08;;;;;;;0.10;0.10;;;10.30;99.90;;;;;;5028323;28;20386;-74
2022/10/10 02:45:34;;;;;;;0.17;0.17;;;10.20;99.90;;;;;;5031541;28;20106;-74
2022/10/10 02:48:00;;;;;;;0.10;0.10;;;10.20;99.90;;;;;;5022729;28;20045;-74
2022/10/10 02:50:28;;;;;;;0.85;0.47;;;10.10;99.90;;;;;;5028430;28;20089;-74
2022/10/10 02:52:54;;;;;;;0.20;0.20;;;10.20;99.90;;;;;;5023212;28;20072;-74
2022/10/10 02:55:19;;;;;;;0.10;0.10;;;10.10;99.90;;;;;;5030769;28;20508;-74
2022/10/10 02:57:45;;;;;;;0.10;0.10;;;10.10;99.90;;;;;;5029181;28;20034;-75
2022/10/10 03:00:11;;;;;;;1.63;0.73;;;10.10;99.90;;;;;;5027224;28;20087;-74
2022/10/10 03:02:37;;;;;;;0.22;0.22;;;10.10;99.90;;;;;;5023608;28;20497;-74
2022/10/10 03:05:03;;;;;;;0.10;0.10;;;10.00;99.90;;;;;;5028555;28;20056;-74
2022/10/10 03:07:28;;;;;;;0.10;0.10;;;10.00;99.90;;;;;;5025666;28;20050;-74
2022/10/10 03:09:54;;;;;;;0.10;0.10;;;10.00;99.90;;;;;;5025876;28;20514;-73
2022/10/10 03:12:19;;;;;;;0.10;0.10;;;10.10;99.90;;;;;;5029170;28;20072;-74
2022/10/10 03:14:45;;;;;;;0.00;0.00;;;10.10;99.90;;;;;;5026402;28;20401;-74
2022/10/10 03:17:10;;;;;;;0.10;0.10;;;10.00;99.90;;;;;;5027403;28;20049;-73
2022/10/10 03:19:36;;;;;;;0.10;0.10;;;10.00;99.90;;;;;;5022964;28;20120;-74
2022/10/10 03:22:02;;;;;;;0.55;0.55;;;9.90;99.90;;;;;;5029109;28;20053;-75
2022/10/10 03:24:28;;;;;;;0.00;0.00;;;9.90;99.90;;;;;;5025933;28;20049;-75
2022/10/10 03:26:53;;;;;;;0.30;0.30;;;9.90;99.90;;;;;;5021570;28;20137;-74
2022/10/10 03:29:19;;;;;;;0.20;0.20;;;9.80;99.90;;;;;;5025188;28;20452;-74
2022/10/10 03:31:45;;;;;;;0.08;0.08;;;9.80;99.90;;;;;;5022515;28;20037;-75
2022/10/10 03:34:10;;;;;;;4.07;1.80;;;9.70;99.90;;;;;;5026254;28;20398;-74
2022/10/10 03:36:36;;;;;;;0.10;0.10;;;9.70;99.90;;;;;;5023343;28;20125;-76
2022/10/10 03:39:03;;;;;;;0.10;0.10;;;9.80;99.90;;;;;;5026655;28;20049;-75
2022/10/10 03:41:29;;;;;;;1.75;0.80;;;9.70;99.90;;;;;;5020873;28;20057;-75
2022/10/10 03:43:54;;;;;;;0.17;0.17;;;9.70;99.90;;;;;;5024351;28;20045;-75
2022/10/10 03:46:20;;;;;;;0.20;0.20;;;9.80;99.90;;;;;;5029810;28;20114;-75
2022/10/10 03:48:46;;;;;;;0.10;0.10;;;9.70;99.90;;;;;;5027583;28;20074;-75
2022/10/10 03:51:11;;;;;;;0.10;0.10;;;9.70;99.90;;;;;;5023209;28;20053;-75
2022/10/10 03:53:37;;;;;;;0.57;0.57;;;9.70;99.90;;;;;;5031734;28;20037;-76
2022/10/10 03:56:03;;;;;;;0.10;0.10;;;9.70;99.90;;;;;;5028293;28;20040;-75
2022/10/10 03:58:28;;;;;;;0.03;0.03;;;9.70;99.90;;;;;;5027940;28;20890;-75
2022/10/10 04:00:59;;;;;;;0.13;0.13;;;9.70;99.90;;;;;;5025793;28;20156;-75
2022/10/10 04:03:25;;;;;;;0.10;0.10;;;9.60;99.90;;;;;;5021517;28;20049;-75
2022/10/10 04:05:51;;;;;;;0.15;0.15;;;9.60;99.90;;;;;;5029566;28;20056;-75
2022/10/10 04:08:17;;;;;;;0.20;0.20;;;9.70;99.90;;;;;;5025207;28;20049;-75
2022/10/10 04:10:46;;;;;;;0.10;0.10;;;9.70;99.90;;;;;;5027042;28;20111;-75
2022/10/10 04:13:12;;;;;;;0.30;0.30;;;9.60;99.90;;;;;;5029141;28;20081;-75
2022/10/10 04:15:38;;;;;;;0.20;0.20;;;9.60;99.90;;;;;;5028060;28;20065;-75
2022/10/10 04:18:03;;;;;;;0.15;0.15;;;9.60;99.90;;;;;;5024999;28;20096;-73
2022/10/10 04:20:29;;;;;;;0.10;0.10;;;9.60;99.90;;;;;;5027283;28;20126;-74
2022/10/10 04:22:55;;;;;;;0.10;0.10;;;9.60;99.90;;;;;;5026087;28;20900;-74
2022/10/10 04:25:20;;;;;;;0.00;0.00;;;9.60;99.90;;;;;;5022712;28;20045;-74
2022/10/10 04:27:46;;;;;;;0.38;0.38;;;9.50;99.90;;;;;;5027745;28;20036;-74
2022/10/10 04:30:12;;;;;;;0.15;0.15;;;9.50;99.90;;;;;;5029796;28;20576;-74
2022/10/10 04:32:38;;;;;;;0.38;0.38;;;9.50;99.90;;;;;;5026291;28;20116;-74
2022/10/10 04:35:04;;;;;;;0.13;0.13;;;9.50;99.90;;;;;;5022729;28;20037;-74
2022/10/10 04:37:30;;;;;;;0.20;0.20;;;9.50;99.90;;;;;;5027839;28;20057;-75
2022/10/10 04:39:55;;;;;;;0.10;0.10;;;9.40;99.90;;;;;;5027025;28;20056;-75
2022/10/10 04:42:21;;;;;;;0.10;0.10;;;9.40;99.90;;;;;;5028588;28;20572;-76
2022/10/10 04:44:46;;;;;;;0.10;0.10;;;9.40;99.90;;;;;;5028260;28;20467;-76
2022/10/10 04:47:12;;;;;;;0.17;0.17;;;9.40;99.90;;;;;;5023845;28;20045;-76
2022/10/10 04:49:38;;;;;;;0.38;0.15;;;9.50;99.90;;;;;;5024277;28;20041;-76
2022/10/10 04:52:03;;;;;;;1.25;0.68;;;9.40;99.90;;;;;;5025564;28;20056;-75
2022/10/10 04:54:29;;;;;;;0.10;0.10;;;9.40;99.90;;;;;;5025889;28;20042;-76
2022/10/10 04:56:55;;;;;;;0.10;0.10;;;9.40;99.90;;;;;;5027625;28;20084;-77
2022/10/10 04:59:20;;;;;;;0.10;0.10;;;9.30;99.90;;;;;;5025856;28;20046;-74
2022/10/10 05:01:46;;;;;;;0.70;0.70;;;9.30;99.90;;;;;;5019671;28;20041;-74
2022/10/10 05:04:13;;;;;;;0.80;0.52;;;9.40;99.90;;;;;;5030219;28;20065;-75
2022/10/10 05:06:38;;;;;;;0.10;0.10;;;9.30;99.90;;;;;;5027591;28;20057;-74
2022/10/10 05:09:04;;;;;;;0.32;0.32;;;9.30;99.90;;;;;;5021688;28;20049;-74
2022/10/10 05:11:29;;;;;;;0.10;0.10;;;9.30;99.90;;;;;;5028582;28;20034;-75
2022/10/10 05:13:55;;;;;;;0.43;0.30;;;9.30;99.90;;;;;;5017117;28;20183;-76
2022/10/10 05:16:21;;;;;;;0.03;0.03;;;9.30;99.90;;;;;;5025820;28;20061;-76
2022/10/10 05:18:46;;;;;;;0.25;0.25;;;9.20;99.90;;;;;;5032091;28;20044;-76
2022/10/10 05:21:12;;;;;;;0.10;0.10;;;9.20;99.90;;;;;;5025457;28;20042;-75
2022/10/10 05:23:40;;;;;;;0.13;0.13;;;9.20;99.90;;;;;;5036959;28;20041;-76
2022/10/10 05:26:06;;;;;;;0.10;0.10;;;9.20;99.90;;;;;;5029791;28;20122;-75
2022/10/10 05:28:34;;;;;;;0.10;0.10;;;9.20;99.90;;;;;;5032302;28;20489;-75
2022/10/10 05:30:59;;;;;;;0.10;0.10;;;9.20;99.90;;;;;;5033306;28;20864;-75
2022/10/10 05:33:25;;;;;;;0.10;0.10;;;9.20;99.90;;;;;;5032257;28;20056;-75
2022/10/10 05:35:51;;;;;;;0.10;0.10;;;9.10;99.90;;;;;;5029714;28;20080;-76
2022/10/10 05:38:16;;;;;;;0.20;0.20;;;9.10;99.90;;;;;;5030540;28;20049;-75
2022/10/10 05:40:42;;;;;;;0.10;0.10;;;9.10;99.90;;;;;;5031144;28;20046;-75
2022/10/10 05:43:08;;;;;;;0.88;0.47;;;9.10;99.90;;;;;;5031385;28;20106;-75
2022/10/10 05:45:33;;;;;;;0.10;0.10;;;9.10;99.90;;;;;;5028411;28;20381;-76
2022/10/10 05:47:59;;;;;;;0.10;0.10;;;9.10;99.90;;;;;;5032408;28;20106;-75
2022/10/10 05:50:34;;;;;;;0.10;0.10;;;9.10;99.90;;;;;;5025432;28;20486;-75
2022/10/10 05:53:00;;;;;;;0.10;0.10;;;9.10;99.90;;;;;;5031153;28;20084;-76
2022/10/10 05:55:26;;;;;;;0.10;0.10;;;9.10;99.90;;;;;;5029958;28;20489;-75
2022/10/10 05:57:52;;;;;;;0.00;0.00;;;9.10;99.90;;;;;;5025791;28;20366;-74
2022/10/10 06:00:17;;;;;;;0.28;0.28;;;9.20;99.90;;;;;;5026555;28;20053;-75
2022/10/10 06:02:43;;;;;;;0.10;0.10;;;9.10;99.90;;;;;;5026026;28;20199;-75
2022/10/10 06:05:08;;;;;;;0.00;0.00;;;9.20;99.90;;;;;;5028126;28;20461;-75
2022/10/10 06:07:34;;;;;;;1.95;1.00;;;9.10;99.90;;;;;;5027266;28;20438;-74
2022/10/10 06:10:00;;;;;;;0.20;0.20;;;9.20;99.90;;;;;;5029601;28;20517;-75
2022/10/10 06:12:25;;;;;;;0.10;0.10;;;9.20;99.90;;;;;;5031806;28;20059;-75
2022/10/10 06:14:51;;;;;;;0.15;0.15;;;9.20;99.90;;;;;;5033456;28;20072;-75
2022/10/10 06:17:16;;;;;;;0.13;0.13;;;9.20;99.90;;;;;;5031397;28;20049;-74
2022/10/10 06:19:43;;;;;;;0.00;0.00;;;9.20;99.90;;;;;;5025574;28;20042;-76
2022/10/10 06:22:08;;;;;;;0.10;0.10;;;9.20;99.90;;;;;;5026790;28;20041;-74
2022/10/10 06:24:34;;;;;;;0.10;0.10;;;9.30;99.90;;;;;;5028576;28;20417;-75
2022/10/10 06:26:59;;;;;;;0.10;0.10;;;9.30;99.90;;;;;;5034429;28;20068;-74
2022/10/10 06:29:25;;;;;;;0.10;0.10;;;9.30;99.90;;;;;;5027686;28;20527;-74
2022/10/10 06:31:51;;;;;;;0.10;0.10;;;9.30;99.90;;;;;;5024643;28;20065;-74
2022/10/10 06:34:16;;;;;;;0.10;0.10;;;9.30;99.90;;;;;;5022653;28;20053;-74
2022/10/10 06:36:42;;;;;;;0.10;0.10;;;9.40;99.90;;;;;;5030530;28;20045;-75
2022/10/10 06:39:07;;;;;;;0.10;0.10;;;9.40;99.90;;;;;;5022177;28;21935;-75
2022/10/10 06:41:33;;;;;;;0.90;0.85;;;9.50;99.90;;;;;;5027568;28;20500;-74
2022/10/10 06:43:59;;;;;;;0.00;0.00;;;9.50;99.90;;;;;;5024017;28;20532;-74
2022/10/10 06:46:24;;;;;;;0.10;0.10;;;9.60;99.90;;;;;;5026255;28;20053;-74
2022/10/10 06:48:50;;;;;;;0.20;0.20;;;9.70;99.90;;;;;;5028206;28;20041;-74
2022/10/10 06:51:16;;;;;;;0.00;0.00;;;9.70;99.90;;;;;;5020924;28;20049;-74
2022/10/10 06:53:43;;;;;;;0.08;0.08;;;9.70;99.90;;;;;;5028481;28;20042;-75
2022/10/10 06:56:16;;;;;;;0.40;0.40;;;9.70;99.90;;;;;;5021802;28;20068;-74
2022/10/10 06:58:42;;;;;;;0.10;0.10;;;9.70;99.90;;;;;;5029726;28;20091;-74
2022/10/10 07:01:08;;;;;;;0.00;0.00;;;9.80;99.90;;;;;;5028769;28;20052;-74
2022/10/10 07:03:34;;;;;;;0.15;0.15;;;9.90;99.90;;;;;;5029476;28;20493;-75
2022/10/10 07:06:01;;;;;;;0.10;0.10;;;9.90;99.90;;;;;;5027104;28;20084;-75
2022/10/10 07:08:28;;;;;;;0.10;0.10;;;10.00;99.90;;;;;;5029953;28;20080;-75
2022/10/10 07:10:54;;;;;;;0.10;0.10;;;10.00;99.90;;;;;;5029913;28;20042;-75
2022/10/10 07:13:20;;;;;;;0.98;0.77;;;10.10;99.90;;;;;;5033062;28;20729;-74
2022/10/10 07:15:45;;;;;;;1.17;0.98;;;10.20;99.90;;;;;;5025764;28;20033;-75
2022/10/10 07:18:11;;;;;;;0.05;0.05;;;10.20;99.90;;;;;;5026137;28;20042;-74
2022/10/10 07:20:38;;;;;;;0.10;0.10;;;10.30;99.90;;;;;;5022447;28;20044;-74
2022/10/10 07:23:04;;;;;;;0.35;0.35;;;10.40;99.90;;;;;;5024080;28;20128;-75
2022/10/10 07:25:30;;;;;;;0.20;0.20;;;10.50;99.90;;;;;;5026711;28;20116;-75
2022/10/10 07:27:55;;;;;;;0.10;0.10;;;10.60;99.90;;;;;;5029690;28;20045;-74
2022/10/10 07:30:22;;;;;;;0.10;0.10;;;10.60;99.90;;;;;;5028706;28;20049;-74
2022/10/10 07:32:48;;;;;;;0.35;0.30;;;10.70;99.90;;;;;;5025126;28;20033;-74
2022/10/10 07:35:14;;;;;;;0.10;0.10;;;10.80;99.90;;;;;;5020937;28;20981;-74
2022/10/10 07:37:39;;;;;;;0.17;0.17;;;10.90;99.90;;;;;;5023437;28;20050;-75
2022/10/10 07:40:07;;;;;;;0.20;0.20;;;11.00;99.90;;;;;;5022263;28;20049;-75
2022/10/10 07:42:33;;;;;;;0.10;0.10;;;11.00;99.90;;;;;;5025316;28;20114;-75
2022/10/10 07:44:59;;;;;;;0.20;0.20;;;11.10;99.90;;;;;;5022754;28;20450;-75
2022/10/10 07:47:24;;;;;;;0.10;0.10;;;11.20;99.90;;;;;;5024212;28;20068;-75
2022/10/10 07:49:50;;;;;;;0.10;0.10;;;11.30;99.90;;;;;;5021871;28;20111;-76
2022/10/10 07:52:16;;;;;;;0.38;0.38;;;11.30;99.90;;;;;;5026868;28;20042;-76
2022/10/10 07:54:42;;;;;;;0.10;0.10;;;11.40;99.90;;;;;;5025955;28;20038;-73
2022/10/10 07:57:07;;;;;;;0.20;0.20;;;11.50;99.90;;;;;;5022672;28;20065;-73
2022/10/10 07:59:33;;;;;;;0.20;0.20;;;11.50;99.90;;;;;;5025717;28;20087;-73
2022/10/10 08:01:58;;;;;;;0.10;0.10;;;11.50;99.90;;;;;;5024588;28;20067;-74
2022/10/10 08:04:24;;;;;;;0.00;0.00;;;11.60;99.90;;;;;;5026453;28;20049;-73
2022/10/10 08:06:50;;;;;;;0.00;0.00;;;11.60;99.90;;;;;;5026528;28;20053;-74
2022/10/10 08:09:15;;;;;;;0.20;0.20;;;11.60;99.90;;;;;;5026795;28;20041;-73
2022/10/10 08:11:41;;;;;;;0.10;0.10;;;11.70;99.90;;;;;;5026442;28;20447;-73
2022/10/10 08:14:06;;;;;;;0.20;0.20;;;11.70;99.90;;;;;;5025772;28;20049;-73
2022/10/10 08:16:32;;;;;;;0.05;0.05;;;11.70;99.90;;;;;;5023571;28;20049;-73
2022/10/10 08:18:58;;;;;;;1.55;1.45;;;11.80;99.90;;;;;;5025801;28;20034;-73
2022/10/10 08:21:23;;;;;;;0.32;0.32;;;11.80;99.90;;;;;;5028442;28;20091;-73
2022/10/10 08:23:49;;;;;;;1.20;1.20;;;11.80;99.90;;;;;;5024590;28;20473;-73
2022/10/10 08:26:16;;;;;;;0.10;0.10;;;11.90;99.90;;;;;;5025039;28;20042;-73
2022/10/10 08:28:42;;;;;;;0.57;0.45;;;11.90;99.90;;;;;;5024501;28;20045;-73
2022/10/10 08:31:11;;;;;;;0.10;0.10;;;11.90;99.90;;;;;;5024488;28;20045;-73
2022/10/10 08:33:39;;;;;;;0.10;0.10;;;12.00;99.90;;;;;;5025917;28;20045;-73
2022/10/10 08:36:07;;;;;;;0.10;0.10;;;12.00;99.90;;;;;;5024807;28;20053;-72
2022/10/10 08:38:32;;;;;;;3.72;1.75;;;12.00;99.90;;;;;;5023685;28;20689;-73
2022/10/10 08:41:00;;;;;;;0.20;0.20;;;12.10;99.90;;;;;;5015006;28;20033;-73
2022/10/10 08:43:28;;;;;;;0.10;0.10;;;12.10;99.90;;;;;;5024253;28;20394;-72
2022/10/10 08:45:56;;;;;;;0.43;0.43;;;12.20;99.90;;;;;;5022765;28;20136;-72
2022/10/10 08:48:26;;;;;;;0.15;0.15;;;12.30;99.90;;;;;;5022211;28;20042;-73
2022/10/10 08:51:25;;;;;;;0.17;0.17;;;12.40;99.90;;;;;;5020977;28;20052;-74
2022/10/10 08:53:53;;;;;;;1.10;0.73;;;12.40;99.90;;;;;;5022574;28;20061;-74
2022/10/10 08:56:25;;;;;;;0.15;0.15;;;12.50;99.90;;;;;;5026831;28;20498;-74
2022/10/10 08:59:08;;;;;;;0.10;0.10;;;12.60;99.90;;;;;;5023939;28;20041;-74
2022/10/10 09:01:37;;;;;;;0.10;0.10;;;12.60;99.90;;;;;;5032923;28;20064;-74
2022/10/10 09:04:05;;;;;;;0.10;0.10;;;12.70;99.90;;;;;;5028036;28;20084;-74
2022/10/10 09:06:52;;;;;;;0.10;0.10;;;12.70;99.90;;;;;;5029102;28;20557;-74
2022/10/10 09:09:38;;;;;;;0.55;0.55;;;12.80;99.90;;;;;;5027433;28;20049;-74
2022/10/10 09:12:31;;;;;;;0.30;0.30;;;12.80;99.90;;;;;;5028453;28;20465;-74
2022/10/10 09:15:46;;;;;;;0.10;0.10;;;12.90;99.90;;;;;;5035228;28;20040;-74
2022/10/10 09:18:49;;;;;;;0.20;0.20;;;12.90;99.90;;;;;;5021139;28;20093;-74
2022/10/10 09:21:24;;;;;;;0.30;0.30;;;13.00;99.90;;;;;;5029804;28;20491;-73
2022/10/10 09:24:19;;;;;;;0.20;0.20;;;13.10;99.90;;;;;;5023823;28;20055;-73
2022/10/10 09:27:02;;;;;;;0.10;0.10;;;13.70;99.90;;;;;;5027632;28;20497;-73
2022/10/10 09:29:38;;;;;;;0.15;0.15;;;14.20;99.90;;;;;;5031875;28;20440;-73
2022/10/10 09:32:16;;;;;;;1.35;0.63;;;14.70;99.90;;;;;;5027375;28;20049;-73
2022/10/10 09:34:49;;;;;;;0.10;0.10;;;15.00;99.90;;;;;;5031541;28;20037;-73
2022/10/10 09:37:20;;;;;;;0.20;0.20;;;15.30;99.90;;;;;;5029046;28;20584;-74
2022/10/10 09:40:03;;;;;;;0.10;0.10;;;15.30;99.90;;;;;;5038562;28;20045;-74
2022/10/10 09:42:38;;;;;;;0.08;0.08;;;15.40;99.90;;;;;;5027399;28;20383;-74
2022/10/10 09:45:33;;;;;;;1.45;0.77;;;15.40;99.90;;;;;;5023327;28;20041;-74
2022/10/10 09:47:58;;;;;;;2.80;1.05;;;15.20;99.90;;;;;;5019207;28;20049;-74
2022/10/10 09:50:24;;;;;;;0.28;0.28;;;15.00;99.90;;;;;;5027534;28;20045;-74
2022/10/10 09:52:51;;;;;;;0.10;0.10;;;14.80;99.90;;;;;;5028353;28;20455;-74
2022/10/10 09:55:29;;;;;;;0.20;0.20;;;14.70;99.90;;;;;;5027985;28;20049;-73
2022/10/10 09:58:01;;;;;;;0.63;0.63;;;14.70;99.90;;;;;;5026128;28;20073;-73
2022/10/10 10:00:33;;;;;;;0.15;0.15;;;14.60;99.90;;;;;;5026515;28;20154;-73
2022/10/10 10:03:25;;;;;;;0.60;0.60;;;14.50;99.90;;;;;;5025270;28;20045;-73
2022/10/10 10:05:59;;;;;;;1.00;0.88;;;14.50;99.90;;;;;;5025395;28;20516;-73
2022/10/10 10:08:35;;;;;;;0.10;0.10;;;14.50;99.90;;;;;;5026132;28;20054;-74
2022/10/10 10:11:02;;;;;;;0.30;0.30;;;14.50;99.90;;;;;;5027628;28;20049;-74
2022/10/10 10:13:32;;;;;;;0.40;0.40;;;14.50;99.90;;;;;;5026443;28;20489;-74
2022/10/10 10:16:02;;;;;;;0.82;0.32;;;14.60;99.90;;;;;;5027812;28;20033;-73
2022/10/10 10:18:28;;;;;;;0.30;0.30;;;14.50;99.90;;;;;;5030315;28;20041;-74
2022/10/10 10:21:11;;;;;;;0.15;0.15;;;14.50;99.90;;;;;;5022540;28;20215;-74
2022/10/10 10:23:59;;;;;;;2.03;1.20;;;14.50;99.90;;;;;;5028901;28;20089;-74
2022/10/10 10:26:46;;;;;;;0.20;0.20;;;14.50;99.90;;;;;;5029688;28;20059;-74
2022/10/10 10:29:26;;;;;;;0.38;0.38;;;14.40;99.90;;;;;;5025599;28;20091;-75
2022/10/10 10:32:03;;;;;;;0.45;0.45;;;14.40;99.90;;;;;;5027241;28;20132;-73
2022/10/10 10:34:45;;;;;;;0.28;0.28;;;14.40;99.90;;;;;;5029846;28;20385;-74
2022/10/10 10:37:15;;;;;;;0.20;0.20;;;14.50;99.90;;;;;;5027535;28;20057;-74
2022/10/10 10:39:41;;;;;;;3.97;1.55;;;14.40;99.90;;;;;;5027530;28;20052;-74
2022/10/10 10:42:37;;;;;;;0.10;0.10;;;14.40;99.90;;;;;;5027709;28;20038;-73
2022/10/10 10:45:26;;;;;;;0.22;0.22;;;14.40;99.90;;;;;;5027071;28;20051;-74
2022/10/10 10:48:12;;;;;;;0.30;0.30;;;14.40;99.90;;;;;;5028759;28;20223;-74
2022/10/10 10:50:48;;;;;;;0.60;0.60;;;14.40;99.90;;;;;;5027377;28;20045;-74
2022/10/10 10:53:28;;;;;;;0.60;0.60;;;14.40;99.90;;;;;;5030268;28;20461;-74
2022/10/10 10:56:17;;;;;;;0.80;0.80;;;14.40;99.90;;;;;;5025663;28;20041;-74
2022/10/10 10:58:54;;;;;;;0.70;0.65;;;14.40;99.90;;;;;;5028782;28;20473;-74
2022/10/10 11:01:29;;;;;;;0.10;0.10;;;14.30;99.90;;;;;;5030338;28;20493;-73
2022/10/10 11:04:17;;;;;;;0.98;0.98;;;14.30;99.90;;;;;;5027089;28;20095;-73
2022/10/10 11:06:51;;;;;;;0.30;0.30;;;14.20;99.90;;;;;;5023942;28;20057;-73
2022/10/10 11:09:27;;;;;;;0.52;0.52;;;14.20;99.90;;;;;;5029846;28;20502;-73
2022/10/10 11:12:49;;;;;;;0.20;0.20;;;14.20;99.90;;;;;;5029089;28;20057;-74
2022/10/10 11:15:24;;;;;;;0.08;0.08;;;14.20;99.90;;;;;;5024385;28;20041;-73
2022/10/10 11:18:02;;;;;;;0.17;0.17;;;14.20;99.90;;;;;;5027725;28;20053;-73
2022/10/10 11:20:34;;;;;;;1.08;0.63;;;14.20;99.90;;;;;;5027578;28;20082;-73
2022/10/10 11:23:11;;;;;;;0.20;0.20;;;14.20;99.90;;;;;;5030499;28;20106;-73
2022/10/10 11:25:40;;;;;;;0.35;0.35;;;14.30;99.90;;;;;;5027045;28;20508;-73
2022/10/10 11:28:22;;;;;;;2.50;1.38;;;14.30;99.90;;;;;;5030527;28;20418;-74
2022/10/10 11:30:56;;;;;;;0.30;0.30;;;14.30;99.90;;;;;;5029919;28;20049;-73
2022/10/10 11:33:27;;;;;;;0.98;0.68;;;14.40;99.90;;;;;;5026519;28;20103;-73
2022/10/10 11:36:14;;;;;;;0.38;0.38;;;14.30;99.90;;;;;;5029525;28;20490;-73
2022/10/10 11:38:48;;;;;;;0.20;0.20;;;14.30;99.90;;;;;;5028951;28;20052;-73
2022/10/10 11:41:31;;;;;;;0.98;0.85;;;14.30;99.90;;;;;;5030781;28;20049;-73
2022/10/10 11:44:06;;;;;;;0.20;0.20;;;14.30;99.90;;;;;;5028472;28;20087;-74
2022/10/10 11:46:53;;;;;;;0.20;0.20;;;14.30;99.90;;;;;;5021214;28;20044;-74
2022/10/10 11:49:28;;;;;;;5.68;1.75;;;14.30;99.90;;;;;;5023302;28;20452;-74
2022/10/10 11:51:56;;;;;;;1.02;0.98;;;14.20;99.90;;;;;;5031878;28;20037;-73
2022/10/10 11:54:22;;;;;;;0.57;0.57;;;14.20;99.90;;;;;;5023486;28;20107;-73
2022/10/10 11:56:49;;;;;;;0.10;0.10;;;14.10;99.90;;;;;;5027032;28;20041;-73
2022/10/10 11:59:26;;;;;;;0.38;0.38;;;14.10;99.90;;;;;;5027312;28;20059;-73
2022/10/10 12:01:57;;;;;;;1.55;0.43;;;14.10;99.90;;;;;;5024464;28;20099;-73
2022/10/10 12:04:22;;;;;;;3.17;0.47;;;14.00;99.90;;;;;;5030007;28;20049;-72
2022/10/10 12:07:25;;;;;;;0.10;0.10;;;14.00;99.90;;;;;;5025117;28;20045;-72
2022/10/10 12:10:01;;;;;;;1.40;1.30;;;14.00;99.90;;;;;;5022580;28;20041;-73
2022/10/10 12:12:33;;;;;;;0.10;0.10;;;14.00;99.90;;;;;;5024152;28;20042;-73
2022/10/10 12:15:02;;;;;;;0.10;0.10;;;14.00;99.90;;;;;;5025226;28;20037;-73
2022/10/10 12:17:32;;;;;;;0.30;0.30;;;14.00;99.90;;;;;;5020202;28;20045;-74
2022/10/10 12:20:10;;;;;;;0.10;0.10;;;14.00;99.90;;;;;;5027028;28;20073;-73
2022/10/10 12:22:36;;;;;;;0.10;0.10;;;14.00;99.90;;;;;;5021052;28;20076;-73
2022/10/10 12:25:09;;;;;;;1.35;0.80;;;14.00;99.90;;;;;;5030360;28;20393;-74
2022/10/10 12:27:42;;;;;;;;;;;14.00;99.90;;;;;;5029086;28;20095;-72
2022/10/10 12:30:08;;;;;;;0.00;0.00;;;14.00;99.90;;;;;;5026119;28;20303;-71
2022/10/10 12:32:40;;;;;;;0.00;0.00;;;14.00;99.90;;;;;;5034504;28;20038;-71
2022/10/10 12:35:38;;;;;;;0.15;0.15;;;14.00;99.90;;;;;;5035011;28;20809;-74
2022/10/10 12:38:04;;;;;;;0.10;0.10;;;13.90;99.90;;;;;;5029876;28;20501;-74
2022/10/10 12:40:33;;;;;;;0.55;0.55;;;13.90;99.90;;;;;;5039472;28;20134;-72
2022/10/10 12:43:22;;;;;;;0.10;0.10;;;13.80;99.90;;;;;;5039846;28;20053;-73
2022/10/10 12:46:16;;;;;;;0.20;0.20;;;13.60;99.90;;;;;;5036451;28;20520;-73
2022/10/10 12:48:42;;;;;;;0.10;0.10;;;13.60;99.90;;;;;;5031621;28;20090;-73
2022/10/10 12:51:21;;;;;;;0.10;0.10;;;13.60;99.90;;;;;;5030479;28;20092;-72
2022/10/10 12:53:53;;;;;;;0.00;0.00;;;13.50;99.90;;;;;;5039534;28;20047;-72
2022/10/10 12:56:38;;;;;;;0.10;0.10;;;13.50;99.90;;;;;;5034503;28;20400;-72
2022/10/10 12:59:05;;;;;;;0.15;0.15;;;13.40;99.90;;;;;;5033507;28;20058;-71
2022/10/10 13:01:37;;;;;;;0.10;0.10;;;13.30;99.90;;;;;;5031985;28;20057;-72
2022/10/10 13:04:02;;;;;;;0.10;0.10;;;13.30;99.90;;;;;;5035051;28;20041;-71
2022/10/10 13:06:39;;;;;;;0.13;0.13;;;13.30;99.90;;;;;;5029290;28;20045;-72
2022/10/10 13:09:21;;;;;;;0.43;0.43;;;13.20;99.90;;;;;;5031464;28;20161;-72
2022/10/10 13:12:01;;;;;;;0.10;0.10;;;13.20;99.90;;;;;;5031509;28;20049;-72